createdAt,value
2019-02-17T00:03:11.392Z,60.10
2019-02-17T00:08:15.502Z,60.90
2019-02-17T00:13:19.430Z,61.60
2019-02-17T00:18:23.341Z,62.00
2019-02-17T00:23:27.290Z,63.30
2019-02-17T00:28:31.215Z,62.80
2019-02-17T00:33:35.226Z,62.90
2019-02-17T00:38:38.806Z,65.10
2019-02-17T00:43:42.388Z,64.10
2019-02-17T00:48:46.337Z,64.60
2019-02-17T00:53:49.930Z,65.60
2019-02-17T00:58:53.513Z,66.40
2019-02-17T01:03:57.105Z,65.70
2019-02-17T01:09:01.029Z,65.40
2019-02-17T01:14:04.791Z,66.50
2019-02-17T01:19:08.379Z,68.30
2019-02-17T01:24:11.965Z,68.20
2019-02-17T01:29:20.420Z,67.90
2019-02-17T01:34:21.177Z,67.70
2019-02-17T01:39:24.767Z,68.60
2019-02-17T01:44:28.370Z,68.90
2019-02-17T01:49:31.952Z,67.60
2019-02-17T01:54:35.537Z,67.00
2019-02-17T01:59:39.126Z,65.70
2019-02-17T02:04:42.754Z,65.50
2019-02-17T02:09:46.338Z,63.60
2019-02-17T02:14:50.186Z,63.50
2019-02-17T02:19:54.158Z,63.40
2019-02-17T02:24:58.202Z,65.40
2019-02-17T02:30:02.247Z,66.90
2019-02-17T02:35:06.981Z,67.10
2019-02-17T02:40:10.702Z,67.60
2019-02-17T02:45:14.362Z,67.30
2019-02-17T02:50:17.954Z,65.10
2019-02-17T02:55:21.530Z,64.90
2019-02-17T03:00:25.186Z,60.30
2019-02-17T03:05:28.833Z,60.40
2019-02-17T03:10:32.430Z,58.10
2019-02-17T03:15:36.005Z,55.70
2019-02-17T03:20:39.873Z,58.50
2019-02-17T03:25:45.372Z,60.50
2019-02-17T03:30:49.518Z,61.10
2019-02-17T03:36:12.427Z,62.60
2019-02-17T03:41:16.005Z,62.00
2019-02-17T03:46:19.599Z,63.70
2019-02-17T03:51:23.164Z,65.00
2019-02-17T03:56:26.753Z,66.00
2019-02-17T04:01:30.361Z,65.00
2019-02-17T04:06:34.009Z,66.20
2019-02-17T04:11:37.585Z,66.70
2019-02-17T04:16:41.178Z,66.80
2019-02-17T04:21:44.753Z,66.70
2019-02-17T04:26:48.344Z,67.60
2019-02-17T04:31:51.913Z,68.60
2019-02-17T04:36:55.509Z,66.70
2019-02-17T04:41:59.082Z,66.80
2019-02-17T04:47:02.742Z,66.40
2019-02-17T04:52:06.699Z,67.70
2019-02-17T04:57:10.277Z,68.60
2019-02-17T05:02:13.869Z,67.90
2019-02-17T05:07:17.446Z,68.40
2019-02-17T05:12:21.125Z,67.50
2019-02-17T05:17:24.741Z,66.60
2019-02-17T05:22:28.321Z,67.40
2019-02-17T05:27:32.257Z,68.10
2019-02-17T05:32:35.839Z,68.70
2019-02-17T05:37:39.410Z,68.70
2019-02-17T05:42:43.018Z,69.20
2019-02-17T05:47:46.604Z,68.70
2019-02-17T05:52:50.254Z,69.10
2019-02-17T05:57:53.839Z,69.30
2019-02-17T06:02:57.421Z,69.70
2019-02-17T06:08:01.321Z,68.90
2019-02-17T06:13:04.893Z,70.00
2019-02-17T06:18:09.003Z,70.20
2019-02-17T06:23:12.584Z,70.50
2019-02-17T06:28:16.228Z,70.80
2019-02-17T06:33:20.157Z,70.80
2019-02-17T06:38:23.812Z,70.30
2019-02-17T06:43:27.382Z,70.40
2019-02-17T06:48:30.967Z,70.50
2019-02-17T06:53:34.549Z,69.20
2019-02-17T06:58:38.147Z,69.70
2019-02-17T07:03:42.081Z,67.60
2019-02-17T07:08:45.887Z,66.60
2019-02-17T07:13:49.468Z,67.60
2019-02-17T07:18:53.128Z,69.50
2019-02-17T07:23:56.773Z,69.10
2019-02-17T07:29:00.350Z,69.30
2019-02-17T07:34:03.938Z,69.60
2019-02-17T07:39:07.588Z,68.80
2019-02-17T07:44:11.165Z,68.60
2019-02-17T07:49:14.820Z,67.90
2019-02-17T07:54:18.406Z,67.70
2019-02-17T07:59:21.988Z,65.70
2019-02-17T08:04:25.989Z,64.10
2019-02-17T08:09:29.573Z,64.00
2019-02-17T08:14:33.532Z,63.40
2019-02-17T08:19:37.113Z,60.50
2019-02-17T08:24:40.688Z,58.80
2019-02-17T08:29:44.367Z,56.30
2019-02-17T08:34:48.305Z,53.30
2019-02-17T08:39:51.887Z,52.00
2019-02-17T08:44:55.467Z,48.90
2019-02-17T08:49:59.069Z,47.60
2019-02-17T08:55:02.798Z,46.50
2019-02-17T09:00:13.922Z,45.70
2019-02-17T09:05:17.515Z,45.00
2019-02-17T09:10:21.536Z,43.90
2019-02-17T09:15:25.137Z,41.80
2019-02-17T09:20:29.084Z,40.50
2019-02-17T09:25:32.688Z,38.80
2019-02-17T09:30:36.637Z,37.70
2019-02-17T09:35:40.221Z,35.60
2019-02-17T09:40:43.814Z,34.80
2019-02-17T09:45:47.398Z,33.30
2019-02-17T09:50:51.056Z,31.30
2019-02-17T09:55:55.205Z,30.90
2019-02-17T10:00:58.816Z,30.90
2019-02-17T10:06:02.483Z,29.30
2019-02-17T10:11:06.172Z,29.00
2019-02-17T10:16:09.757Z,28.90
2019-02-17T10:21:13.344Z,27.40
2019-02-17T10:26:16.936Z,27.20
2019-02-17T10:31:20.596Z,26.00
2019-02-17T10:36:24.188Z,24.60
2019-02-17T10:41:27.904Z,24.10
2019-02-17T10:46:31.698Z,23.80
2019-02-17T10:51:35.588Z,21.90
2019-02-17T10:56:39.169Z,21.90
2019-02-17T11:01:42.867Z,21.10
2019-02-17T11:06:46.797Z,20.80
2019-02-17T11:11:50.354Z,21.80
2019-02-17T11:16:53.938Z,21.60
2019-02-17T11:21:58.068Z,22.60
2019-02-17T11:27:02.092Z,23.20
2019-02-17T11:32:06.040Z,22.90
2019-02-17T11:37:09.876Z,22.40
2019-02-17T11:42:13.750Z,22.20
2019-02-17T11:47:17.448Z,23.00
2019-02-17T11:52:21.413Z,23.00
2019-02-17T11:57:25.178Z,22.80
2019-02-17T12:02:28.845Z,22.60
2019-02-17T12:07:32.449Z,21.10
2019-02-17T12:12:36.433Z,20.80
2019-02-17T12:17:40.012Z,19.50
2019-02-17T12:22:43.876Z,18.80
2019-02-17T12:27:49.451Z,18.30
2019-02-17T12:32:53.175Z,17.50
2019-02-17T12:37:56.764Z,16.60
2019-02-17T12:43:00.698Z,17.00
2019-02-17T12:48:04.429Z,16.30
2019-02-17T12:53:08.019Z,15.80
2019-02-17T12:58:11.610Z,14.70
2019-02-17T13:03:15.568Z,14.80
2019-02-17T13:08:19.157Z,14.00
2019-02-17T13:13:22.736Z,12.80
2019-02-17T13:18:26.673Z,12.60
2019-02-17T13:23:30.273Z,13.60
2019-02-17T13:28:33.887Z,13.30
2019-02-17T13:33:39.381Z,13.70
2019-02-17T13:38:43.130Z,13.40
2019-02-17T13:43:46.997Z,13.20
2019-02-17T13:48:50.583Z,13.20
2019-02-17T13:53:54.176Z,14.20
2019-02-17T13:58:57.856Z,14.00
2019-02-17T14:04:01.833Z,10.70
2019-02-17T14:09:06.168Z,12.50
2019-02-17T14:14:09.756Z,13.50
2019-02-17T14:19:13.357Z,12.70
2019-02-17T14:24:16.998Z,12.40
2019-02-17T14:29:20.594Z,12.40
2019-02-17T14:34:24.163Z,12.90
2019-02-17T14:39:28.138Z,12.80
2019-02-17T14:44:31.788Z,13.90
2019-02-17T14:49:35.372Z,12.90
2019-02-17T14:54:38.957Z,13.50
2019-02-17T14:59:42.534Z,13.90
2019-02-17T15:04:46.537Z,14.10
2019-02-17T15:09:50.116Z,14.40
2019-02-17T15:14:54.103Z,14.70
2019-02-17T15:19:57.700Z,15.00
2019-02-17T15:25:01.320Z,15.70
2019-02-17T15:30:13.355Z,16.10
2019-02-17T15:35:16.936Z,16.80
2019-02-17T15:40:20.588Z,17.70
2019-02-17T15:45:24.641Z,17.80
2019-02-17T15:50:28.224Z,21.50
2019-02-17T15:55:31.951Z,22.40
2019-02-17T16:00:35.524Z,24.00
2019-02-17T16:05:39.122Z,26.50
2019-02-17T16:10:42.707Z,28.20
2019-02-17T16:15:46.297Z,30.90
2019-02-17T16:20:50.305Z,29.70
2019-02-17T16:25:53.900Z,32.90
2019-02-17T16:30:57.496Z,33.30
2019-02-17T16:36:01.073Z,34.30
2019-02-17T16:41:05.200Z,35.40
2019-02-17T16:46:08.779Z,38.20
2019-02-17T16:51:12.352Z,39.50
2019-02-17T16:56:15.942Z,39.60
2019-02-17T17:01:19.970Z,40.30
2019-02-17T17:06:23.670Z,40.40
2019-02-17T17:11:27.258Z,41.80
2019-02-17T17:16:30.847Z,42.90
2019-02-17T17:21:34.770Z,43.70
2019-02-17T17:26:38.414Z,44.10
2019-02-17T17:31:42.077Z,44.20
2019-02-17T17:36:46.039Z,43.30
2019-02-17T17:41:49.619Z,42.00
2019-02-17T17:46:53.211Z,42.20
2019-02-17T17:51:57.144Z,43.20
2019-02-17T17:57:01.021Z,44.20
2019-02-17T18:02:04.681Z,42.30
2019-02-17T18:07:08.266Z,46.30
2019-02-17T18:12:11.862Z,45.70
2019-02-17T18:17:15.449Z,45.60
2019-02-17T18:22:19.168Z,44.10
2019-02-17T18:27:22.781Z,47.10
2019-02-17T18:32:26.728Z,48.80
2019-02-17T18:37:30.393Z,48.20
2019-02-17T18:42:33.978Z,50.40
2019-02-17T18:47:37.562Z,50.90
2019-02-17T18:52:41.210Z,48.10
2019-02-17T18:57:50.332Z,49.00
2019-02-17T19:02:50.053Z,48.30
2019-02-17T19:07:53.632Z,47.40
2019-02-17T19:12:57.223Z,49.00
2019-02-17T19:18:00.813Z,47.60
2019-02-17T19:23:04.793Z,47.20
2019-02-17T19:28:08.377Z,46.80
2019-02-17T19:33:12.352Z,47.20
2019-02-17T19:38:15.919Z,46.90
2019-02-17T19:43:19.505Z,45.90
2019-02-17T19:48:23.393Z,46.60
2019-02-17T19:53:27.053Z,46.20
2019-02-17T19:58:30.712Z,47.30
2019-02-17T20:03:36.318Z,50.30
2019-02-17T20:08:39.897Z,49.70
2019-02-17T20:13:45.937Z,51.10
2019-02-17T20:18:49.606Z,51.70
2019-02-17T20:23:53.221Z,48.70
2019-02-17T20:28:57.391Z,48.20
2019-02-17T20:34:01.347Z,53.40
2019-02-17T20:39:06.132Z,54.90
2019-02-17T20:44:10.035Z,54.00
2019-02-17T20:49:13.648Z,54.50
2019-02-17T20:54:17.236Z,55.90
2019-02-17T20:59:20.813Z,57.00
2019-02-17T21:04:24.455Z,56.50
2019-02-17T21:09:28.305Z,56.60
2019-02-17T21:14:31.879Z,58.20
2019-02-17T21:19:35.808Z,58.70
2019-02-17T21:24:39.549Z,59.90
2019-02-17T21:29:43.129Z,60.00
2019-02-17T21:34:47.072Z,59.20
2019-02-17T21:39:50.665Z,57.00
2019-02-17T21:44:54.244Z,57.60
2019-02-17T21:49:57.816Z,55.60
2019-02-17T21:55:01.792Z,58.00
2019-02-17T22:00:09.434Z,59.40
2019-02-17T22:05:13.156Z,59.80
2019-02-17T22:10:20.358Z,59.30
2019-02-17T22:15:24.770Z,62.40
2019-02-17T22:20:28.344Z,61.90
2019-02-17T22:25:31.924Z,62.10
2019-02-17T22:30:35.821Z,63.30
2019-02-17T22:35:39.474Z,63.10
2019-02-17T22:40:43.412Z,63.30
2019-02-17T22:45:47.072Z,60.90
2019-02-17T22:50:50.645Z,60.60
2019-02-17T22:55:54.493Z,59.50
2019-02-17T23:01:00.661Z,59.60
2019-02-17T23:06:04.578Z,60.30
2019-02-17T23:11:08.585Z,60.80
2019-02-17T23:16:12.162Z,61.00
2019-02-17T23:21:15.796Z,61.90
2019-02-17T23:26:19.387Z,60.50
2019-02-17T23:31:23.042Z,60.20
2019-02-17T23:36:26.634Z,62.30
2019-02-17T23:41:30.220Z,63.20
2019-02-17T23:46:33.823Z,64.20
2019-02-17T23:51:37.481Z,63.50
2019-02-17T23:56:41.117Z,63.10
